Beroun, Czech Republic
Current Conditions -  °F | °C
As of 10:30 AM on Friday 19 Dec 2014 (Local Time) from LKPR Reporting Station
Broken Clouds Broken Clouds  
Wind Chill: 50°   Ceiling: 2300
Heat Index: 50°   Visibility: 6mi
Dew Point: 43°   Wind: 24mph
Humidity: 76%   Direction: 240°WSW
Pressure: 29.94"   Gusts: NA
Location:  49.97°N, 14.07°E
Report Text: LKPR 190830Z 24021KT 9999 BKN023 10/06 Q1014 NOSIG
Loading
Personal Weather Stations






























Interactive Weather Map New forecast layout! Learn more

10-Day Weather Forecast

Advertisements
Track Severe Weather on mobile